sensor_id;sensor_type;location;lat;lon;timestamp;P1;durP1;ratioP1;P2;durP2;ratioP2
9178;SDS011;4624;48.126;11.546;2023-04-06T00:00:09;4.63;;;3.53;;
9178;SDS011;4624;48.126;11.546;2023-04-06T00:02:37;7.10;;;3.43;;
9178;SDS011;4624;48.126;11.546;2023-04-06T00:05:04;4.87;;;3.20;;
9178;SDS011;4624;48.126;11.546;2023-04-06T00:07:32;4.73;;;3.00;;
9178;SDS011;4624;48.126;11.546;2023-04-06T00:09:59;5.57;;;3.20;;
9178;SDS011;4624;48.126;11.546;2023-04-06T00:12:26;3.33;;;3.03;;
9178;SDS011;4624;48.126;11.546;2023-04-06T00:14:54;4.00;;;3.07;;
9178;SDS011;4624;48.126;11.546;2023-04-06T00:17:21;3.97;;;3.57;;
9178;SDS011;4624;48.126;11.546;2023-04-06T00:19:48;5.30;;;3.23;;
9178;SDS011;4624;48.126;11.546;2023-04-06T00:22:15;3.03;;;2.73;;
9178;SDS011;4624;48.126;11.546;2023-04-06T00:24:42;4.40;;;3.30;;
9178;SDS011;4624;48.126;11.546;2023-04-06T00:27:08;5.47;;;3.67;;
9178;SDS011;4624;48.126;11.546;2023-04-06T00:29:35;3.47;;;3.13;;
9178;SDS011;4624;48.126;11.546;2023-04-06T00:32:05;3.90;;;3.20;;
9178;SDS011;4624;48.126;11.546;2023-04-06T00:34:31;4.50;;;3.50;;
9178;SDS011;4624;48.126;11.546;2023-04-06T00:36:58;3.87;;;3.57;;
9178;SDS011;4624;48.126;11.546;2023-04-06T00:39:25;3.77;;;3.37;;
9178;SDS011;4624;48.126;11.546;2023-04-06T00:41:52;5.77;;;3.73;;
9178;SDS011;4624;48.126;11.546;2023-04-06T00:44:20;3.70;;;3.40;;
9178;SDS011;4624;48.126;11.546;2023-04-06T00:46:48;5.10;;;3.37;;
9178;SDS011;4624;48.126;11.546;2023-04-06T00:49:16;4.47;;;3.57;;
9178;SDS011;4624;48.126;11.546;2023-04-06T00:51:43;5.23;;;3.50;;
9178;SDS011;4624;48.126;11.546;2023-04-06T00:54:10;6.00;;;3.90;;
9178;SDS011;4624;48.126;11.546;2023-04-06T00:56:37;4.10;;;3.70;;
9178;SDS011;4624;48.126;11.546;2023-04-06T00:59:04;3.43;;;2.97;;
9178;SDS011;4624;48.126;11.546;2023-04-06T01:01:30;5.97;;;3.63;;
9178;SDS011;4624;48.126;11.546;2023-04-06T01:03:58;3.57;;;3.27;;
9178;SDS011;4624;48.126;11.546;2023-04-06T01:06:26;6.43;;;3.47;;
9178;SDS011;4624;48.126;11.546;2023-04-06T01:08:53;4.00;;;3.17;;
9178;SDS011;4624;48.126;11.546;2023-04-06T01:11:20;5.17;;;3.27;;
9178;SDS011;4624;48.126;11.546;2023-04-06T01:13:47;4.93;;;3.77;;
9178;SDS011;4624;48.126;11.546;2023-04-06T01:16:14;5.10;;;3.53;;
9178;SDS011;4624;48.126;11.546;2023-04-06T01:18:41;3.97;;;3.17;;
9178;SDS011;4624;48.126;11.546;2023-04-06T01:21:08;5.47;;;3.53;;
9178;SDS011;4624;48.126;11.546;2023-04-06T01:23:41;5.37;;;3.80;;
9178;SDS011;4624;48.126;11.546;2023-04-06T01:26:10;3.60;;;3.17;;
9178;SDS011;4624;48.126;11.546;2023-04-06T01:28:37;4.63;;;3.10;;
9178;SDS011;4624;48.126;11.546;2023-04-06T01:31:04;6.00;;;3.47;;
9178;SDS011;4624;48.126;11.546;2023-04-06T01:33:32;10.30;;;3.43;;
9178;SDS011;4624;48.126;11.546;2023-04-06T01:35:59;4.27;;;3.60;;
9178;SDS011;4624;48.126;11.546;2023-04-06T01:38:26;5.20;;;3.33;;
9178;SDS011;4624;48.126;11.546;2023-04-06T01:40:54;4.40;;;3.20;;
9178;SDS011;4624;48.126;11.546;2023-04-06T01:43:21;5.57;;;3.40;;
9178;SDS011;4624;48.126;11.546;2023-04-06T01:45:48;3.80;;;2.97;;
9178;SDS011;4624;48.126;11.546;2023-04-06T01:48:16;6.73;;;3.23;;
9178;SDS011;4624;48.126;11.546;2023-04-06T01:50:43;5.20;;;3.40;;
9178;SDS011;4624;48.126;11.546;2023-04-06T01:53:10;5.03;;;3.40;;
9178;SDS011;4624;48.126;11.546;2023-04-06T01:55:36;4.40;;;3.43;;
9178;SDS011;4624;48.126;11.546;2023-04-06T01:58:05;4.47;;;3.20;;
9178;SDS011;4624;48.126;11.546;2023-04-06T02:00:31;5.03;;;3.47;;
9178;SDS011;4624;48.126;11.546;2023-04-06T02:02:58;4.90;;;3.50;;
9178;SDS011;4624;48.126;11.546;2023-04-06T02:05:25;5.20;;;3.70;;
9178;SDS011;4624;48.126;11.546;2023-04-06T02:07:54;3.80;;;3.40;;
9178;SDS011;4624;48.126;11.546;2023-04-06T02:10:21;6.17;;;3.13;;
9178;SDS011;4624;48.126;11.546;2023-04-06T02:12:48;4.13;;;3.13;;
9178;SDS011;4624;48.126;11.546;2023-04-06T02:15:17;5.63;;;4.30;;
9178;SDS011;4624;48.126;11.546;2023-04-06T02:17:43;4.00;;;3.50;;
9178;SDS011;4624;48.126;11.546;2023-04-06T02:20:10;5.93;;;3.47;;
9178;SDS011;4624;48.126;11.546;2023-04-06T02:22:37;4.80;;;3.00;;
9178;SDS011;4624;48.126;11.546;2023-04-06T02:25:05;4.53;;;3.10;;
9178;SDS011;4624;48.126;11.546;2023-04-06T02:27:32;3.60;;;3.30;;
9178;SDS011;4624;48.126;11.546;2023-04-06T02:29:59;6.50;;;3.73;;
9178;SDS011;4624;48.126;11.546;2023-04-06T02:32:27;5.57;;;3.97;;
9178;SDS011;4624;48.126;11.546;2023-04-06T02:34:54;6.07;;;3.67;;
9178;SDS011;4624;48.126;11.546;2023-04-06T02:37:21;4.57;;;3.70;;
9178;SDS011;4624;48.126;11.546;2023-04-06T02:39:49;4.97;;;3.67;;
9178;SDS011;4624;48.126;11.546;2023-04-06T02:42:16;5.33;;;3.93;;
9178;SDS011;4624;48.126;11.546;2023-04-06T02:44:43;4.47;;;3.57;;
9178;SDS011;4624;48.126;11.546;2023-04-06T02:47:10;5.87;;;3.87;;
9178;SDS011;4624;48.126;11.546;2023-04-06T02:49:38;6.60;;;4.03;;
9178;SDS011;4624;48.126;11.546;2023-04-06T02:52:05;4.60;;;4.20;;
9178;SDS011;4624;48.126;11.546;2023-04-06T02:54:32;4.33;;;3.60;;
9178;SDS011;4624;48.126;11.546;2023-04-06T02:56:58;4.40;;;3.97;;
9178;SDS011;4624;48.126;11.546;2023-04-06T02:59:25;4.70;;;3.80;;
9178;SDS011;4624;48.126;11.546;2023-04-06T03:01:52;4.43;;;3.73;;
9178;SDS011;4624;48.126;11.546;2023-04-06T03:04:19;4.90;;;4.13;;
9178;SDS011;4624;48.126;11.546;2023-04-06T03:06:49;6.53;;;4.40;;
9178;SDS011;4624;48.126;11.546;2023-04-06T03:09:16;4.93;;;4.40;;
9178;SDS011;4624;48.126;11.546;2023-04-06T03:11:42;6.17;;;3.90;;
9178;SDS011;4624;48.126;11.546;2023-04-06T03:14:10;4.63;;;4.07;;
9178;SDS011;4624;48.126;11.546;2023-04-06T03:16:36;6.83;;;4.40;;
9178;SDS011;4624;48.126;11.546;2023-04-06T03:19:03;5.03;;;4.10;;
9178;SDS011;4624;48.126;11.546;2023-04-06T03:21:30;4.80;;;4.00;;
9178;SDS011;4624;48.126;11.546;2023-04-06T03:23:58;5.20;;;3.63;;
9178;SDS011;4624;48.126;11.546;2023-04-06T03:26:25;5.27;;;4.03;;
9178;SDS011;4624;48.126;11.546;2023-04-06T03:28:52;7.80;;;4.57;;
9178;SDS011;4624;48.126;11.546;2023-04-06T03:31:19;5.90;;;4.50;;
9178;SDS011;4624;48.126;11.546;2023-04-06T03:33:46;4.57;;;3.93;;
9178;SDS011;4624;48.126;11.546;2023-04-06T03:36:13;6.47;;;4.00;;
9178;SDS011;4624;48.126;11.546;2023-04-06T03:38:39;4.33;;;3.83;;
9178;SDS011;4624;48.126;11.546;2023-04-06T03:41:08;5.23;;;4.33;;
9178;SDS011;4624;48.126;11.546;2023-04-06T03:43:35;5.77;;;4.60;;
9178;SDS011;4624;48.126;11.546;2023-04-06T03:46:02;4.90;;;4.40;;
9178;SDS011;4624;48.126;11.546;2023-04-06T03:48:28;5.20;;;4.10;;
9178;SDS011;4624;48.126;11.546;2023-04-06T03:50:55;6.90;;;4.70;;
9178;SDS011;4624;48.126;11.546;2023-04-06T03:53:22;4.73;;;4.00;;
9178;SDS011;4624;48.126;11.546;2023-04-06T03:55:49;4.60;;;3.87;;
9178;SDS011;4624;48.126;11.546;2023-04-06T03:58:17;6.67;;;4.43;;
9178;SDS011;4624;48.126;11.546;2023-04-06T04:00:44;4.87;;;4.10;;
9178;SDS011;4624;48.126;11.546;2023-04-06T04:03:11;5.50;;;4.47;;
9178;SDS011;4624;48.126;11.546;2023-04-06T04:05:38;8.03;;;4.70;;
9178;SDS011;4624;48.126;11.546;2023-04-06T04:08:05;7.17;;;4.60;;
9178;SDS011;4624;48.126;11.546;2023-04-06T04:10:32;4.70;;;3.93;;
9178;SDS011;4624;48.126;11.546;2023-04-06T04:12:58;7.33;;;5.00;;
9178;SDS011;4624;48.126;11.546;2023-04-06T04:15:27;6.30;;;5.47;;
9178;SDS011;4624;48.126;11.546;2023-04-06T04:17:54;7.13;;;5.27;;
9178;SDS011;4624;48.126;11.546;2023-04-06T04:20:20;5.43;;;4.93;;
9178;SDS011;4624;48.126;11.546;2023-04-06T04:22:47;8.90;;;4.63;;
9178;SDS011;4624;48.126;11.546;2023-04-06T04:25:14;7.73;;;5.30;;
9178;SDS011;4624;48.126;11.546;2023-04-06T04:27:41;7.03;;;4.90;;
9178;SDS011;4624;48.126;11.546;2023-04-06T04:30:08;7.90;;;4.80;;
9178;SDS011;4624;48.126;11.546;2023-04-06T04:32:36;7.40;;;4.67;;
9178;SDS011;4624;48.126;11.546;2023-04-06T04:35:04;6.47;;;5.03;;
9178;SDS011;4624;48.126;11.546;2023-04-06T04:37:31;7.87;;;5.07;;
9178;SDS011;4624;48.126;11.546;2023-04-06T04:39:59;6.27;;;4.73;;
9178;SDS011;4624;48.126;11.546;2023-04-06T04:42:26;6.37;;;4.67;;
9178;SDS011;4624;48.126;11.546;2023-04-06T04:44:53;5.07;;;4.57;;
9178;SDS011;4624;48.126;11.546;2023-04-06T04:47:20;6.20;;;5.03;;
9178;SDS011;4624;48.126;11.546;2023-04-06T04:49:48;5.50;;;4.17;;
9178;SDS011;4624;48.126;11.546;2023-04-06T04:52:15;6.27;;;4.63;;
9178;SDS011;4624;48.126;11.546;2023-04-06T04:54:42;6.33;;;4.33;;
9178;SDS011;4624;48.126;11.546;2023-04-06T04:57:08;8.07;;;4.37;;
9178;SDS011;4624;48.126;11.546;2023-04-06T04:59:35;4.97;;;4.47;;
9178;SDS011;4624;48.126;11.546;2023-04-06T05:02:02;5.60;;;5.03;;
9178;SDS011;4624;48.126;11.546;2023-04-06T05:04:29;5.03;;;4.03;;
9178;SDS011;4624;48.126;11.546;2023-04-06T05:07:04;5.20;;;4.30;;
9178;SDS011;4624;48.126;11.546;2023-04-06T05:09:32;6.23;;;4.67;;
9178;SDS011;4624;48.126;11.546;2023-04-06T05:11:58;7.23;;;4.20;;
9178;SDS011;4624;48.126;11.546;2023-04-06T05:14:26;4.87;;;4.20;;
9178;SDS011;4624;48.126;11.546;2023-04-06T05:16:53;5.30;;;3.57;;
9178;SDS011;4624;48.126;11.546;2023-04-06T05:19:20;5.47;;;3.80;;
9178;SDS011;4624;48.126;11.546;2023-04-06T05:21:46;8.53;;;4.37;;
9178;SDS011;4624;48.126;11.546;2023-04-06T05:24:15;7.73;;;4.30;;
9178;SDS011;4624;48.126;11.546;2023-04-06T05:26:42;4.40;;;3.37;;
9178;SDS011;4624;48.126;11.546;2023-04-06T05:29:09;6.43;;;4.07;;
9178;SDS011;4624;48.126;11.546;2023-04-06T05:31:36;6.70;;;4.37;;
9178;SDS011;4624;48.126;11.546;2023-04-06T05:34:03;4.87;;;4.10;;
9178;SDS011;4624;48.126;11.546;2023-04-06T05:36:30;5.13;;;4.63;;
9178;SDS011;4624;48.126;11.546;2023-04-06T05:38:58;11.03;;;7.67;;
9178;SDS011;4624;48.126;11.546;2023-04-06T05:41:26;10.13;;;7.07;;
9178;SDS011;4624;48.126;11.546;2023-04-06T05:43:53;6.57;;;4.00;;
9178;SDS011;4624;48.126;11.546;2023-04-06T05:46:20;6.30;;;3.90;;
9178;SDS011;4624;48.126;11.546;2023-04-06T05:48:47;4.90;;;3.93;;
9178;SDS011;4624;48.126;11.546;2023-04-06T05:51:14;7.43;;;4.13;;
9178;SDS011;4624;48.126;11.546;2023-04-06T05:53:41;7.03;;;4.30;;
9178;SDS011;4624;48.126;11.546;2023-04-06T05:56:08;7.40;;;4.67;;
9178;SDS011;4624;48.126;11.546;2023-04-06T05:58:36;5.40;;;4.47;;
9178;SDS011;4624;48.126;11.546;2023-04-06T06:01:03;5.20;;;4.10;;
9178;SDS011;4624;48.126;11.546;2023-04-06T06:03:30;5.43;;;4.07;;
9178;SDS011;4624;48.126;11.546;2023-04-06T06:06:00;6.17;;;4.73;;
9178;SDS011;4624;48.126;11.546;2023-04-06T06:08:27;4.83;;;3.97;;
9178;SDS011;4624;48.126;11.546;2023-04-06T06:10:54;9.70;;;5.10;;
9178;SDS011;4624;48.126;11.546;2023-04-06T06:13:21;5.50;;;4.07;;
9178;SDS011;4624;48.126;11.546;2023-04-06T06:15:49;7.17;;;4.30;;
9178;SDS011;4624;48.126;11.546;2023-04-06T06:18:16;4.43;;;3.93;;
9178;SDS011;4624;48.126;11.546;2023-04-06T06:20:43;4.80;;;3.70;;
9178;SDS011;4624;48.126;11.546;2023-04-06T06:23:10;4.37;;;3.87;;
9178;SDS011;4624;48.126;11.546;2023-04-06T06:25:37;5.23;;;3.60;;
9178;SDS011;4624;48.126;11.546;2023-04-06T06:28:04;8.17;;;3.70;;
9178;SDS011;4624;48.126;11.546;2023-04-06T06:30:30;4.10;;;3.27;;
9178;SDS011;4624;48.126;11.546;2023-04-06T06:32:59;4.50;;;3.70;;
9178;SDS011;4624;48.126;11.546;2023-04-06T06:35:26;4.40;;;3.67;;
9178;SDS011;4624;48.126;11.546;2023-04-06T06:37:52;4.53;;;3.80;;
9178;SDS011;4624;48.126;11.546;2023-04-06T06:40:19;3.50;;;3.20;;
9178;SDS011;4624;48.126;11.546;2023-04-06T06:42:48;5.27;;;3.47;;
9178;SDS011;4624;48.126;11.546;2023-04-06T06:45:16;4.87;;;4.00;;
9178;SDS011;4624;48.126;11.546;2023-04-06T06:47:43;4.10;;;3.63;;
9178;SDS011;4624;48.126;11.546;2023-04-06T06:50:11;4.70;;;3.93;;
9178;SDS011;4624;48.126;11.546;2023-04-06T06:52:39;7.10;;;3.87;;
9178;SDS011;4624;48.126;11.546;2023-04-06T06:55:07;4.23;;;3.67;;
9178;SDS011;4624;48.126;11.546;2023-04-06T06:57:35;4.73;;;4.00;;
9178;SDS011;4624;48.126;11.546;2023-04-06T07:00:03;8.23;;;4.27;;
9178;SDS011;4624;48.126;11.546;2023-04-06T07:02:33;5.20;;;3.70;;
9178;SDS011;4624;48.126;11.546;2023-04-06T07:05:01;4.77;;;3.53;;
9178;SDS011;4624;48.126;11.546;2023-04-06T07:07:31;5.47;;;3.60;;
9178;SDS011;4624;48.126;11.546;2023-04-06T07:09:58;8.13;;;4.27;;
9178;SDS011;4624;48.126;11.546;2023-04-06T07:12:25;8.97;;;4.10;;
9178;SDS011;4624;48.126;11.546;2023-04-06T07:14:52;4.10;;;3.70;;
9178;SDS011;4624;48.126;11.546;2023-04-06T07:17:19;5.60;;;3.63;;
9178;SDS011;4624;48.126;11.546;2023-04-06T07:19:46;4.40;;;3.53;;
9178;SDS011;4624;48.126;11.546;2023-04-06T07:22:13;3.90;;;3.60;;
9178;SDS011;4624;48.126;11.546;2023-04-06T07:24:41;5.17;;;3.50;;
9178;SDS011;4624;48.126;11.546;2023-04-06T07:27:08;4.87;;;3.40;;
9178;SDS011;4624;48.126;11.546;2023-04-06T07:29:35;4.03;;;3.30;;
9178;SDS011;4624;48.126;11.546;2023-04-06T07:32:02;4.43;;;3.20;;
9178;SDS011;4624;48.126;11.546;2023-04-06T07:34:29;3.23;;;3.00;;
9178;SDS011;4624;48.126;11.546;2023-04-06T07:36:56;4.63;;;3.60;;
9178;SDS011;4624;48.126;11.546;2023-04-06T07:39:24;4.63;;;3.40;;
9178;SDS011;4624;48.126;11.546;2023-04-06T07:41:53;6.10;;;3.53;;
9178;SDS011;4624;48.126;11.546;2023-04-06T07:44:20;4.37;;;3.27;;
9178;SDS011;4624;48.126;11.546;2023-04-06T07:46:46;3.80;;;3.40;;
9178;SDS011;4624;48.126;11.546;2023-04-06T07:49:13;5.80;;;3.40;;
9178;SDS011;4624;48.126;11.546;2023-04-06T07:51:40;4.47;;;3.73;;
9178;SDS011;4624;48.126;11.546;2023-04-06T07:54:07;4.93;;;3.70;;
9178;SDS011;4624;48.126;11.546;2023-04-06T07:56:34;4.23;;;3.60;;
9178;SDS011;4624;48.126;11.546;2023-04-06T07:59:02;4.60;;;4.20;;
9178;SDS011;4624;48.126;11.546;2023-04-06T08:01:29;4.87;;;4.37;;
9178;SDS011;4624;48.126;11.546;2023-04-06T08:03:56;6.13;;;4.53;;
9178;SDS011;4624;48.126;11.546;2023-04-06T08:06:24;5.67;;;4.53;;
9178;SDS011;4624;48.126;11.546;2023-04-06T08:08:51;5.33;;;4.43;;
9178;SDS011;4624;48.126;11.546;2023-04-06T08:11:18;5.63;;;4.30;;
9178;SDS011;4624;48.126;11.546;2023-04-06T08:13:45;4.63;;;3.83;;
9178;SDS011;4624;48.126;11.546;2023-04-06T08:16:13;6.07;;;4.10;;
9178;SDS011;4624;48.126;11.546;2023-04-06T08:18:40;3.97;;;3.57;;
9178;SDS011;4624;48.126;11.546;2023-04-06T08:21:07;6.57;;;4.10;;
9178;SDS011;4624;48.126;11.546;2023-04-06T08:23:34;5.07;;;4.57;;
9178;SDS011;4624;48.126;11.546;2023-04-06T08:26:00;6.07;;;4.53;;
9178;SDS011;4624;48.126;11.546;2023-04-06T08:28:27;4.47;;;4.07;;
9178;SDS011;4624;48.126;11.546;2023-04-06T08:30:54;5.33;;;4.43;;
9178;SDS011;4624;48.126;11.546;2023-04-06T08:33:22;5.43;;;4.70;;
9178;SDS011;4624;48.126;11.546;2023-04-06T08:35:49;6.10;;;4.60;;
9178;SDS011;4624;48.126;11.546;2023-04-06T08:38:16;4.47;;;3.97;;
9178;SDS011;4624;48.126;11.546;2023-04-06T08:40:43;5.27;;;4.17;;
9178;SDS011;4624;48.126;11.546;2023-04-06T08:43:13;7.20;;;5.53;;
9178;SDS011;4624;48.126;11.546;2023-04-06T08:45:41;4.43;;;4.03;;
9178;SDS011;4624;48.126;11.546;2023-04-06T08:48:08;5.37;;;4.60;;
9178;SDS011;4624;48.126;11.546;2023-04-06T08:50:37;4.57;;;4.13;;
9178;SDS011;4624;48.126;11.546;2023-04-06T08:53:05;5.00;;;4.60;;
9178;SDS011;4624;48.126;11.546;2023-04-06T08:55:33;5.90;;;4.83;;
9178;SDS011;4624;48.126;11.546;2023-04-06T08:58:01;6.87;;;4.50;;
9178;SDS011;4624;48.126;11.546;2023-04-06T09:00:28;6.70;;;4.43;;
9178;SDS011;4624;48.126;11.546;2023-04-06T09:02:55;6.60;;;4.70;;
9178;SDS011;4624;48.126;11.546;2023-04-06T09:05:24;4.80;;;4.40;;
9178;SDS011;4624;48.126;11.546;2023-04-06T09:07:53;4.60;;;4.17;;
9178;SDS011;4624;48.126;11.546;2023-04-06T09:10:20;5.27;;;4.47;;
9178;SDS011;4624;48.126;11.546;2023-04-06T09:12:48;6.40;;;4.67;;
9178;SDS011;4624;48.126;11.546;2023-04-06T09:15:18;5.65;;;4.40;;
9178;SDS011;4624;48.126;11.546;2023-04-06T09:17:46;5.15;;;4.13;;
9178;SDS011;4624;48.126;11.546;2023-04-06T09:20:13;4.60;;;4.20;;
9178;SDS011;4624;48.126;11.546;2023-04-06T09:22:42;4.80;;;4.38;;
9178;SDS011;4624;48.126;11.546;2023-04-06T09:25:17;6.03;;;5.45;;
9178;SDS011;4624;48.126;11.546;2023-04-06T09:27:45;5.20;;;4.72;;
9178;SDS011;4624;48.126;11.546;2023-04-06T09:30:12;5.63;;;5.00;;
9178;SDS011;4624;48.126;11.546;2023-04-06T09:32:45;5.00;;;4.50;;
9178;SDS011;4624;48.126;11.546;2023-04-06T09:35:13;5.20;;;4.70;;
9178;SDS011;4624;48.126;11.546;2023-04-06T09:37:41;4.88;;;4.47;;
9178;SDS011;4624;48.126;11.546;2023-04-06T09:40:10;5.90;;;5.38;;
9178;SDS011;4624;48.126;11.546;2023-04-06T09:42:39;8.18;;;5.60;;
9178;SDS011;4624;48.126;11.546;2023-04-06T09:45:07;5.55;;;4.63;;
9178;SDS011;4624;48.126;11.546;2023-04-06T09:47:35;5.28;;;4.88;;
9178;SDS011;4624;48.126;11.546;2023-04-06T09:50:05;5.18;;;4.78;;
9178;SDS011;4624;48.126;11.546;2023-04-06T09:52:37;4.57;;;4.18;;
9178;SDS011;4624;48.126;11.546;2023-04-06T09:55:07;4.90;;;4.40;;
9178;SDS011;4624;48.126;11.546;2023-04-06T09:57:37;4.93;;;4.53;;
9178;SDS011;4624;48.126;11.546;2023-04-06T10:00:12;5.35;;;4.85;;
9178;SDS011;4624;48.126;11.546;2023-04-06T10:02:45;5.10;;;4.60;;
9178;SDS011;4624;48.126;11.546;2023-04-06T10:05:19;5.10;;;4.60;;
9178;SDS011;4624;48.126;11.546;2023-04-06T10:07:53;6.00;;;4.60;;
9178;SDS011;4624;48.126;11.546;2023-04-06T10:10:22;5.00;;;4.60;;
9178;SDS011;4624;48.126;11.546;2023-04-06T10:12:50;5.10;;;4.60;;
9178;SDS011;4624;48.126;11.546;2023-04-06T10:15:17;5.73;;;5.23;;
9178;SDS011;4624;48.126;11.546;2023-04-06T10:17:44;5.53;;;4.33;;
9178;SDS011;4624;48.126;11.546;2023-04-06T10:20:12;4.60;;;4.20;;
9178;SDS011;4624;48.126;11.546;2023-04-06T10:22:49;5.63;;;4.90;;
9178;SDS011;4624;48.126;11.546;2023-04-06T10:25:26;4.75;;;4.35;;
9178;SDS011;4624;48.126;11.546;2023-04-06T10:28:00;5.38;;;4.50;;
9178;SDS011;4624;48.126;11.546;2023-04-06T10:30:27;5.50;;;5.00;;
9178;SDS011;4624;48.126;11.546;2023-04-06T10:32:55;5.57;;;5.07;;
9178;SDS011;4624;48.126;11.546;2023-04-06T10:35:22;5.13;;;4.63;;
9178;SDS011;4624;48.126;11.546;2023-04-06T10:37:50;4.90;;;4.50;;
9178;SDS011;4624;48.126;11.546;2023-04-06T10:40:21;5.50;;;5.00;;
9178;SDS011;4624;48.126;11.546;2023-04-06T10:42:50;4.43;;;4.10;;
9178;SDS011;4624;48.126;11.546;2023-04-06T10:45:23;4.83;;;4.50;;
9178;SDS011;4624;48.126;11.546;2023-04-06T10:47:52;5.10;;;4.60;;
9178;SDS011;4624;48.126;11.546;2023-04-06T10:50:19;4.97;;;4.67;;
9178;SDS011;4624;48.126;11.546;2023-04-06T10:52:46;5.20;;;4.70;;
9178;SDS011;4624;48.126;11.546;2023-04-06T10:55:24;4.80;;;4.40;;
9178;SDS011;4624;48.126;11.546;2023-04-06T10:57:52;6.00;;;5.00;;
9178;SDS011;4624;48.126;11.546;2023-04-06T11:00:19;5.30;;;4.80;;
9178;SDS011;4624;48.126;11.546;2023-04-06T11:02:48;4.93;;;4.63;;
9178;SDS011;4624;48.126;11.546;2023-04-06T11:05:14;4.25;;;3.85;;
9178;SDS011;4624;48.126;11.546;2023-04-06T11:07:42;5.40;;;4.82;;
9178;SDS011;4624;48.126;11.546;2023-04-06T11:10:10;4.75;;;4.38;;
9178;SDS011;4624;48.126;11.546;2023-04-06T11:12:37;4.65;;;4.35;;
9178;SDS011;4624;48.126;11.546;2023-04-06T11:15:05;5.03;;;4.53;;
9178;SDS011;4624;48.126;11.546;2023-04-06T11:17:33;5.32;;;4.90;;
9178;SDS011;4624;48.126;11.546;2023-04-06T11:20:03;5.32;;;4.82;;
9178;SDS011;4624;48.126;11.546;2023-04-06T11:22:35;5.32;;;4.82;;
9178;SDS011;4624;48.126;11.546;2023-04-06T11:25:05;5.63;;;5.20;;
9178;SDS011;4624;48.126;11.546;2023-04-06T11:27:33;5.22;;;4.82;;
9178;SDS011;4624;48.126;11.546;2023-04-06T11:30:00;5.28;;;4.88;;
9178;SDS011;4624;48.126;11.546;2023-04-06T11:32:28;5.78;;;5.28;;
9178;SDS011;4624;48.126;11.546;2023-04-06T11:34:57;4.78;;;4.47;;
9178;SDS011;4624;48.126;11.546;2023-04-06T11:37:26;4.40;;;4.10;;
9178;SDS011;4624;48.126;11.546;2023-04-06T11:39:54;4.50;;;4.10;;
9178;SDS011;4624;48.126;11.546;2023-04-06T11:42:22;5.47;;;5.07;;
9178;SDS011;4624;48.126;11.546;2023-04-06T11:44:50;4.22;;;3.92;;
9178;SDS011;4624;48.126;11.546;2023-04-06T11:47:18;4.82;;;4.53;;
9178;SDS011;4624;48.126;11.546;2023-04-06T11:49:47;5.65;;;4.35;;
9178;SDS011;4624;48.126;11.546;2023-04-06T11:52:15;4.25;;;3.85;;
9178;SDS011;4624;48.126;11.546;2023-04-06T11:54:44;4.45;;;4.15;;
9178;SDS011;4624;48.126;11.546;2023-04-06T11:57:12;4.18;;;3.88;;
9178;SDS011;4624;48.126;11.546;2023-04-06T11:59:39;4.80;;;4.38;;
9178;SDS011;4624;48.126;11.546;2023-04-06T12:02:06;4.57;;;4.20;;
9178;SDS011;4624;48.126;11.546;2023-04-06T12:04:33;5.07;;;4.07;;
9178;SDS011;4624;48.126;11.546;2023-04-06T12:07:00;4.78;;;4.38;;
9178;SDS011;4624;48.126;11.546;2023-04-06T12:09:27;4.72;;;4.32;;
9178;SDS011;4624;48.126;11.546;2023-04-06T12:11:56;4.77;;;4.40;;
9178;SDS011;4624;48.126;11.546;2023-04-06T12:14:22;5.87;;;5.27;;
9178;SDS011;4624;48.126;11.546;2023-04-06T12:16:50;5.82;;;5.32;;
9178;SDS011;4624;48.126;11.546;2023-04-06T12:19:17;4.23;;;3.93;;
9178;SDS011;4624;48.126;11.546;2023-04-06T12:21:43;4.30;;;3.90;;
9178;SDS011;4624;48.126;11.546;2023-04-06T12:24:11;3.55;;;3.15;;
9178;SDS011;4624;48.126;11.546;2023-04-06T12:26:37;3.60;;;3.30;;
9178;SDS011;4624;48.126;11.546;2023-04-06T12:29:07;4.00;;;3.70;;
9178;SDS011;4624;48.126;11.546;2023-04-06T12:31:35;3.73;;;3.43;;
9178;SDS011;4624;48.126;11.546;2023-04-06T12:34:03;4.03;;;3.67;;
9178;SDS011;4624;48.126;11.546;2023-04-06T12:36:30;4.30;;;3.93;;
9178;SDS011;4624;48.126;11.546;2023-04-06T12:38:58;4.03;;;3.73;;
9178;SDS011;4624;48.126;11.546;2023-04-06T12:41:25;3.60;;;3.30;;
9178;SDS011;4624;48.126;11.546;2023-04-06T12:43:52;3.97;;;3.50;;
9178;SDS011;4624;48.126;11.546;2023-04-06T12:46:20;3.27;;;3.07;;
9178;SDS011;4624;48.126;11.546;2023-04-06T12:48:47;3.47;;;3.20;;
9178;SDS011;4624;48.126;11.546;2023-04-06T12:51:15;3.77;;;3.33;;
9178;SDS011;4624;48.126;11.546;2023-04-06T12:53:42;4.23;;;3.83;;
9178;SDS011;4624;48.126;11.546;2023-04-06T12:56:12;4.43;;;3.77;;
9178;SDS011;4624;48.126;11.546;2023-04-06T12:58:40;3.70;;;3.40;;
9178;SDS011;4624;48.126;11.546;2023-04-06T13:01:07;4.20;;;3.33;;
9178;SDS011;4624;48.126;11.546;2023-04-06T13:03:35;4.60;;;4.13;;
9178;SDS011;4624;48.126;11.546;2023-04-06T13:06:02;4.40;;;4.00;;
9178;SDS011;4624;48.126;11.546;2023-04-06T13:08:29;5.23;;;4.23;;
9178;SDS011;4624;48.126;11.546;2023-04-06T13:10:56;4.50;;;4.10;;
9178;SDS011;4624;48.126;11.546;2023-04-06T13:13:24;4.27;;;3.87;;
9178;SDS011;4624;48.126;11.546;2023-04-06T13:15:51;3.97;;;3.43;;
9178;SDS011;4624;48.126;11.546;2023-04-06T13:18:19;6.47;;;3.90;;
9178;SDS011;4624;48.126;11.546;2023-04-06T13:20:47;3.80;;;3.50;;
9178;SDS011;4624;48.126;11.546;2023-04-06T13:23:15;3.73;;;3.43;;
9178;SDS011;4624;48.126;11.546;2023-04-06T13:25:42;4.70;;;4.30;;
9178;SDS011;4624;48.126;11.546;2023-04-06T13:28:09;4.27;;;3.87;;
9178;SDS011;4624;48.126;11.546;2023-04-06T13:30:36;4.80;;;4.23;;
9178;SDS011;4624;48.126;11.546;2023-04-06T13:33:03;5.07;;;4.20;;
9178;SDS011;4624;48.126;11.546;2023-04-06T13:35:31;4.33;;;3.73;;
9178;SDS011;4624;48.126;11.546;2023-04-06T13:37:59;4.17;;;3.80;;
9178;SDS011;4624;48.126;11.546;2023-04-06T13:40:26;4.83;;;4.43;;
9178;SDS011;4624;48.126;11.546;2023-04-06T13:42:53;4.13;;;3.73;;
9178;SDS011;4624;48.126;11.546;2023-04-06T13:45:19;4.17;;;3.87;;
9178;SDS011;4624;48.126;11.546;2023-04-06T13:47:46;5.23;;;3.60;;
9178;SDS011;4624;48.126;11.546;2023-04-06T13:50:13;4.40;;;4.00;;
9178;SDS011;4624;48.126;11.546;2023-04-06T13:52:40;5.33;;;4.30;;
9178;SDS011;4624;48.126;11.546;2023-04-06T13:55:08;4.90;;;3.93;;
9178;SDS011;4624;48.126;11.546;2023-04-06T13:57:35;3.87;;;3.50;;
9178;SDS011;4624;48.126;11.546;2023-04-06T14:00:03;3.70;;;3.40;;
9178;SDS011;4624;48.126;11.546;2023-04-06T14:02:30;4.23;;;3.43;;
9178;SDS011;4624;48.126;11.546;2023-04-06T14:04:57;4.03;;;3.43;;
9178;SDS011;4624;48.126;11.546;2023-04-06T14:07:23;3.67;;;3.37;;
9178;SDS011;4624;48.126;11.546;2023-04-06T14:09:51;3.30;;;3.10;;
9178;SDS011;4624;48.126;11.546;2023-04-06T14:12:19;3.53;;;3.10;;
9178;SDS011;4624;48.126;11.546;2023-04-06T14:14:45;3.40;;;3.10;;
9178;SDS011;4624;48.126;11.546;2023-04-06T14:17:12;4.10;;;3.40;;
9178;SDS011;4624;48.126;11.546;2023-04-06T14:19:39;3.50;;;3.20;;
9178;SDS011;4624;48.126;11.546;2023-04-06T14:22:06;3.23;;;3.00;;
9178;SDS011;4624;48.126;11.546;2023-04-06T14:24:33;3.50;;;3.20;;
9178;SDS011;4624;48.126;11.546;2023-04-06T14:27:01;3.57;;;3.27;;
9178;SDS011;4624;48.126;11.546;2023-04-06T14:29:30;3.53;;;2.80;;
9178;SDS011;4624;48.126;11.546;2023-04-06T14:31:56;4.23;;;3.27;;
9178;SDS011;4624;48.126;11.546;2023-04-06T14:34:25;3.17;;;2.87;;
9178;SDS011;4624;48.126;11.546;2023-04-06T14:36:52;3.93;;;3.17;;
9178;SDS011;4624;48.126;11.546;2023-04-06T14:39:19;3.33;;;3.03;;
9178;SDS011;4624;48.126;11.546;2023-04-06T14:41:46;3.93;;;3.47;;
9178;SDS011;4624;48.126;11.546;2023-04-06T14:44:13;3.27;;;3.00;;
9178;SDS011;4624;48.126;11.546;2023-04-06T14:46:42;6.00;;;2.90;;
9178;SDS011;4624;48.126;11.546;2023-04-06T14:49:09;4.00;;;3.00;;
9178;SDS011;4624;48.126;11.546;2023-04-06T14:51:36;4.20;;;2.60;;
9178;SDS011;4624;48.126;11.546;2023-04-06T14:54:04;3.27;;;2.97;;
9178;SDS011;4624;48.126;11.546;2023-04-06T14:56:30;2.87;;;2.67;;
9178;SDS011;4624;48.126;11.546;2023-04-06T14:58:58;3.33;;;3.03;;
9178;SDS011;4624;48.126;11.546;2023-04-06T15:01:26;5.40;;;3.27;;